sensor_id;sensor_type;location;lat;lon;timestamp;P1;durP1;ratioP1;P2;durP2;ratioP2
22826;SDS011;11580;52.562;13.418;2023-04-08T00:01:06;11.67;;;10.47;;
22826;SDS011;11580;52.562;13.418;2023-04-08T00:03:34;11.47;;;10.27;;
22826;SDS011;11580;52.562;13.418;2023-04-08T00:06:01;11.40;;;10.23;;
22826;SDS011;11580;52.562;13.418;2023-04-08T00:08:29;12.00;;;10.87;;
22826;SDS011;11580;52.562;13.418;2023-04-08T00:10:56;13.13;;;11.93;;
22826;SDS011;11580;52.562;13.418;2023-04-08T00:13:23;13.43;;;12.13;;
22826;SDS011;11580;52.562;13.418;2023-04-08T00:15:51;12.33;;;11.23;;
22826;SDS011;11580;52.562;13.418;2023-04-08T00:18:19;13.37;;;11.97;;
22826;SDS011;11580;52.562;13.418;2023-04-08T00:20:46;12.77;;;11.57;;
22826;SDS011;11580;52.562;13.418;2023-04-08T00:23:13;17.27;;;13.60;;
22826;SDS011;11580;52.562;13.418;2023-04-08T00:25:41;14.83;;;11.67;;
22826;SDS011;11580;52.562;13.418;2023-04-08T00:28:08;14.43;;;12.93;;
22826;SDS011;11580;52.562;13.418;2023-04-08T00:30:35;14.43;;;13.00;;
22826;SDS011;11580;52.562;13.418;2023-04-08T00:33:02;15.53;;;13.80;;
22826;SDS011;11580;52.562;13.418;2023-04-08T00:35:31;16.13;;;14.43;;
22826;SDS011;11580;52.562;13.418;2023-04-08T00:37:58;15.50;;;13.90;;
22826;SDS011;11580;52.562;13.418;2023-04-08T00:40:25;18.63;;;14.67;;
22826;SDS011;11580;52.562;13.418;2023-04-08T00:42:53;16.83;;;14.73;;
22826;SDS011;11580;52.562;13.418;2023-04-08T00:45:22;16.07;;;14.37;;
22826;SDS011;11580;52.562;13.418;2023-04-08T00:47:49;15.77;;;14.07;;
22826;SDS011;11580;52.562;13.418;2023-04-08T00:50:17;18.50;;;15.87;;
22826;SDS011;11580;52.562;13.418;2023-04-08T00:52:46;17.80;;;16.00;;
22826;SDS011;11580;52.562;13.418;2023-04-08T00:55:13;16.10;;;14.47;;
22826;SDS011;11580;52.562;13.418;2023-04-08T00:57:41;16.93;;;15.10;;
22826;SDS011;11580;52.562;13.418;2023-04-08T01:00:08;19.40;;;15.83;;
22826;SDS011;11580;52.562;13.418;2023-04-08T01:02:38;18.73;;;16.83;;
22826;SDS011;11580;52.562;13.418;2023-04-08T01:05:14;19.53;;;15.97;;
22826;SDS011;11580;52.562;13.418;2023-04-08T01:07:51;20.53;;;16.50;;
22826;SDS011;11580;52.562;13.418;2023-04-08T01:10:20;17.73;;;15.97;;
22826;SDS011;11580;52.562;13.418;2023-04-08T01:12:53;21.87;;;16.53;;
22826;SDS011;11580;52.562;13.418;2023-04-08T01:15:22;19.63;;;15.70;;
22826;SDS011;11580;52.562;13.418;2023-04-08T01:17:53;21.33;;;16.50;;
22826;SDS011;11580;52.562;13.418;2023-04-08T01:20:22;18.37;;;16.40;;
22826;SDS011;11580;52.562;13.418;2023-04-08T01:22:57;19.47;;;15.83;;
22826;SDS011;11580;52.562;13.418;2023-04-08T01:25:36;20.23;;;18.13;;
22826;SDS011;11580;52.562;13.418;2023-04-08T01:28:06;21.20;;;18.97;;
22826;SDS011;11580;52.562;13.418;2023-04-08T01:30:38;22.17;;;17.50;;
22826;SDS011;11580;52.562;13.418;2023-04-08T01:33:08;22.10;;;17.13;;
22826;SDS011;11580;52.562;13.418;2023-04-08T01:35:38;21.77;;;17.43;;
22826;SDS011;11580;52.562;13.418;2023-04-08T01:38:06;19.63;;;16.33;;
22826;SDS011;11580;52.562;13.418;2023-04-08T01:40:36;16.93;;;15.10;;
22826;SDS011;11580;52.562;13.418;2023-04-08T01:43:08;20.40;;;16.47;;
22826;SDS011;11580;52.562;13.418;2023-04-08T01:45:38;16.13;;;14.50;;
22826;SDS011;11580;52.562;13.418;2023-04-08T01:48:05;21.20;;;17.87;;
22826;SDS011;11580;52.562;13.418;2023-04-08T01:50:35;20.73;;;17.47;;
22826;SDS011;11580;52.562;13.418;2023-04-08T01:53:03;20.27;;;16.40;;
22826;SDS011;11580;52.562;13.418;2023-04-08T01:55:35;23.53;;;17.77;;
22826;SDS011;11580;52.562;13.418;2023-04-08T01:58:05;18.60;;;16.10;;
22826;SDS011;11580;52.562;13.418;2023-04-08T02:00:40;20.87;;;17.70;;
22826;SDS011;11580;52.562;13.418;2023-04-08T02:03:09;19.90;;;16.33;;
22826;SDS011;11580;52.562;13.418;2023-04-08T02:05:39;21.20;;;18.33;;
22826;SDS011;11580;52.562;13.418;2023-04-08T02:08:08;18.43;;;15.83;;
22826;SDS011;11580;52.562;13.418;2023-04-08T02:10:37;19.60;;;17.30;;
22826;SDS011;11580;52.562;13.418;2023-04-08T02:13:04;19.40;;;16.30;;
22826;SDS011;11580;52.562;13.418;2023-04-08T02:15:35;18.97;;;16.63;;
22826;SDS011;11580;52.562;13.418;2023-04-08T02:18:14;20.40;;;15.73;;
22826;SDS011;11580;52.562;13.418;2023-04-08T02:20:52;17.00;;;14.50;;
22826;SDS011;11580;52.562;13.418;2023-04-08T02:23:27;21.13;;;17.60;;
22826;SDS011;11580;52.562;13.418;2023-04-08T02:26:00;19.40;;;17.20;;
22826;SDS011;11580;52.562;13.418;2023-04-08T02:28:33;21.60;;;16.40;;
22826;SDS011;11580;52.562;13.418;2023-04-08T02:31:02;18.63;;;16.73;;
22826;SDS011;11580;52.562;13.418;2023-04-08T02:33:33;18.47;;;15.93;;
22826;SDS011;11580;52.562;13.418;2023-04-08T02:36:02;21.20;;;18.37;;
22826;SDS011;11580;52.562;13.418;2023-04-08T02:38:31;19.67;;;15.83;;
22826;SDS011;11580;52.562;13.418;2023-04-08T02:40:58;20.17;;;17.67;;
22826;SDS011;11580;52.562;13.418;2023-04-08T02:43:27;19.10;;;16.00;;
22826;SDS011;11580;52.562;13.418;2023-04-08T02:45:58;19.70;;;16.30;;
22826;SDS011;11580;52.562;13.418;2023-04-08T02:48:27;20.30;;;17.20;;
22826;SDS011;11580;52.562;13.418;2023-04-08T02:50:55;23.47;;;17.93;;
22826;SDS011;11580;52.562;13.418;2023-04-08T02:53:22;21.37;;;17.33;;
22826;SDS011;11580;52.562;13.418;2023-04-08T02:55:50;18.57;;;15.93;;
22826;SDS011;11580;52.562;13.418;2023-04-08T02:58:18;22.87;;;16.20;;
22826;SDS011;11580;52.562;13.418;2023-04-08T03:00:45;21.17;;;16.87;;
22826;SDS011;11580;52.562;13.418;2023-04-08T03:03:13;21.40;;;16.60;;
22826;SDS011;11580;52.562;13.418;2023-04-08T03:05:40;20.30;;;17.40;;
22826;SDS011;11580;52.562;13.418;2023-04-08T03:08:08;23.37;;;18.10;;
22826;SDS011;11580;52.562;13.418;2023-04-08T03:10:35;23.70;;;16.97;;
22826;SDS011;11580;52.562;13.418;2023-04-08T03:13:02;20.30;;;18.17;;
22826;SDS011;11580;52.562;13.418;2023-04-08T03:15:29;19.70;;;17.57;;
22826;SDS011;11580;52.562;13.418;2023-04-08T03:17:56;24.27;;;18.47;;
22826;SDS011;11580;52.562;13.418;2023-04-08T03:20:25;20.50;;;16.90;;
22826;SDS011;11580;52.562;13.418;2023-04-08T03:22:52;19.13;;;17.07;;
22826;SDS011;11580;52.562;13.418;2023-04-08T03:25:19;22.07;;;17.10;;
22826;SDS011;11580;52.562;13.418;2023-04-08T03:27:46;23.13;;;19.37;;
22826;SDS011;11580;52.562;13.418;2023-04-08T03:30:13;21.97;;;18.07;;
22826;SDS011;11580;52.562;13.418;2023-04-08T03:32:41;20.20;;;18.03;;
22826;SDS011;11580;52.562;13.418;2023-04-08T03:35:08;21.77;;;18.30;;
22826;SDS011;11580;52.562;13.418;2023-04-08T03:37:36;24.47;;;18.80;;
22826;SDS011;11580;52.562;13.418;2023-04-08T03:40:04;20.13;;;17.83;;
22826;SDS011;11580;52.562;13.418;2023-04-08T03:42:33;23.03;;;18.60;;
22826;SDS011;11580;52.562;13.418;2023-04-08T03:45:00;22.40;;;18.43;;
22826;SDS011;11580;52.562;13.418;2023-04-08T03:47:27;22.07;;;19.67;;
22826;SDS011;11580;52.562;13.418;2023-04-08T03:49:55;25.67;;;19.20;;
22826;SDS011;11580;52.562;13.418;2023-04-08T03:52:23;22.00;;;18.47;;
22826;SDS011;11580;52.562;13.418;2023-04-08T03:54:52;23.47;;;17.70;;
22826;SDS011;11580;52.562;13.418;2023-04-08T03:57:19;22.43;;;17.53;;
22826;SDS011;11580;52.562;13.418;2023-04-08T03:59:46;25.60;;;17.80;;
22826;SDS011;11580;52.562;13.418;2023-04-08T04:02:13;21.53;;;17.77;;
22826;SDS011;11580;52.562;13.418;2023-04-08T04:04:40;22.53;;;19.10;;
22826;SDS011;11580;52.562;13.418;2023-04-08T04:07:07;20.93;;;17.27;;
22826;SDS011;11580;52.562;13.418;2023-04-08T04:09:35;22.80;;;19.80;;
22826;SDS011;11580;52.562;13.418;2023-04-08T04:12:03;23.93;;;18.37;;
22826;SDS011;11580;52.562;13.418;2023-04-08T04:14:31;25.53;;;19.97;;
22826;SDS011;11580;52.562;13.418;2023-04-08T04:16:58;24.97;;;18.97;;
22826;SDS011;11580;52.562;13.418;2023-04-08T04:19:28;20.30;;;17.97;;
22826;SDS011;11580;52.562;13.418;2023-04-08T04:21:56;25.87;;;19.73;;
22826;SDS011;11580;52.562;13.418;2023-04-08T04:24:23;24.93;;;19.80;;
22826;SDS011;11580;52.562;13.418;2023-04-08T04:26:50;23.50;;;19.10;;
22826;SDS011;11580;52.562;13.418;2023-04-08T04:29:19;23.83;;;19.83;;
22826;SDS011;11580;52.562;13.418;2023-04-08T04:31:46;23.00;;;19.00;;
22826;SDS011;11580;52.562;13.418;2023-04-08T04:34:13;22.47;;;19.80;;
22826;SDS011;11580;52.562;13.418;2023-04-08T04:36:41;20.07;;;17.87;;
22826;SDS011;11580;52.562;13.418;2023-04-08T04:39:08;22.17;;;17.83;;
22826;SDS011;11580;52.562;13.418;2023-04-08T04:41:36;24.93;;;18.57;;
22826;SDS011;11580;52.562;13.418;2023-04-08T04:44:04;20.70;;;18.10;;
22826;SDS011;11580;52.562;13.418;2023-04-08T04:46:33;19.97;;;17.47;;
22826;SDS011;11580;52.562;13.418;2023-04-08T04:49:00;22.23;;;19.53;;
22826;SDS011;11580;52.562;13.418;2023-04-08T04:51:29;19.77;;;17.13;;
22826;SDS011;11580;52.562;13.418;2023-04-08T04:53:57;21.63;;;17.93;;
22826;SDS011;11580;52.562;13.418;2023-04-08T04:56:24;24.30;;;19.50;;
22826;SDS011;11580;52.562;13.418;2023-04-08T04:58:51;19.57;;;17.53;;
22826;SDS011;11580;52.562;13.418;2023-04-08T05:01:19;20.27;;;17.40;;
22826;SDS011;11580;52.562;13.418;2023-04-08T05:03:47;22.87;;;19.73;;
22826;SDS011;11580;52.562;13.418;2023-04-08T05:06:14;22.37;;;19.00;;
22826;SDS011;11580;52.562;13.418;2023-04-08T05:08:41;22.37;;;19.97;;
22826;SDS011;11580;52.562;13.418;2023-04-08T05:11:09;22.57;;;19.13;;
22826;SDS011;11580;52.562;13.418;2023-04-08T05:13:36;22.77;;;18.00;;
22826;SDS011;11580;52.562;13.418;2023-04-08T05:16:04;22.53;;;19.87;;
22826;SDS011;11580;52.562;13.418;2023-04-08T05:18:31;24.50;;;20.90;;
22826;SDS011;11580;52.562;13.418;2023-04-08T05:21:00;21.97;;;19.60;;
22826;SDS011;11580;52.562;13.418;2023-04-08T05:23:27;23.17;;;19.43;;
22826;SDS011;11580;52.562;13.418;2023-04-08T05:25:54;21.07;;;18.67;;
22826;SDS011;11580;52.562;13.418;2023-04-08T05:28:22;22.83;;;19.07;;
22826;SDS011;11580;52.562;13.418;2023-04-08T05:30:49;23.00;;;19.63;;
22826;SDS011;11580;52.562;13.418;2023-04-08T05:33:17;24.73;;;20.97;;
22826;SDS011;11580;52.562;13.418;2023-04-08T05:35:45;23.00;;;20.30;;
22826;SDS011;11580;52.562;13.418;2023-04-08T05:38:13;24.80;;;20.80;;
22826;SDS011;11580;52.562;13.418;2023-04-08T05:40:40;24.47;;;20.20;;
22826;SDS011;11580;52.562;13.418;2023-04-08T05:43:07;27.23;;;21.40;;
22826;SDS011;11580;52.562;13.418;2023-04-08T05:45:35;28.00;;;23.50;;
22826;SDS011;11580;52.562;13.418;2023-04-08T05:48:02;26.50;;;22.07;;
22826;SDS011;11580;52.562;13.418;2023-04-08T05:50:29;25.50;;;22.07;;
22826;SDS011;11580;52.562;13.418;2023-04-08T05:52:56;28.97;;;22.80;;
22826;SDS011;11580;52.562;13.418;2023-04-08T05:55:25;25.03;;;21.47;;
22826;SDS011;11580;52.562;13.418;2023-04-08T05:57:52;27.97;;;21.83;;
22826;SDS011;11580;52.562;13.418;2023-04-08T06:00:20;27.60;;;21.80;;
22826;SDS011;11580;52.562;13.418;2023-04-08T06:02:47;26.87;;;21.53;;
22826;SDS011;11580;52.562;13.418;2023-04-08T06:05:14;28.97;;;22.60;;
22826;SDS011;11580;52.562;13.418;2023-04-08T06:07:43;28.50;;;22.87;;
22826;SDS011;11580;52.562;13.418;2023-04-08T06:10:10;28.57;;;21.77;;
22826;SDS011;11580;52.562;13.418;2023-04-08T06:12:39;32.00;;;23.63;;
22826;SDS011;11580;52.562;13.418;2023-04-08T06:15:07;28.30;;;22.80;;
22826;SDS011;11580;52.562;13.418;2023-04-08T06:17:35;28.17;;;22.20;;
22826;SDS011;11580;52.562;13.418;2023-04-08T06:20:03;29.93;;;24.07;;
22826;SDS011;11580;52.562;13.418;2023-04-08T06:22:33;31.10;;;23.47;;
22826;SDS011;11580;52.562;13.418;2023-04-08T06:25:01;28.23;;;22.87;;
22826;SDS011;11580;52.562;13.418;2023-04-08T06:27:28;27.27;;;23.23;;
22826;SDS011;11580;52.562;13.418;2023-04-08T06:29:56;31.80;;;25.60;;
22826;SDS011;11580;52.562;13.418;2023-04-08T06:32:23;35.00;;;25.83;;
22826;SDS011;11580;52.562;13.418;2023-04-08T06:34:51;28.97;;;24.13;;
22826;SDS011;11580;52.562;13.418;2023-04-08T06:37:18;25.93;;;22.70;;
22826;SDS011;11580;52.562;13.418;2023-04-08T06:39:45;28.27;;;21.70;;
22826;SDS011;11580;52.562;13.418;2023-04-08T06:42:12;34.20;;;24.10;;
22826;SDS011;11580;52.562;13.418;2023-04-08T06:45:09;29.37;;;23.23;;
22826;SDS011;11580;52.562;13.418;2023-04-08T06:47:36;27.30;;;22.97;;
22826;SDS011;11580;52.562;13.418;2023-04-08T06:50:04;28.37;;;23.63;;
22826;SDS011;11580;52.562;13.418;2023-04-08T06:52:32;30.80;;;24.73;;
22826;SDS011;11580;52.562;13.418;2023-04-08T06:54:59;26.70;;;23.80;;
22826;SDS011;11580;52.562;13.418;2023-04-08T06:57:27;32.90;;;24.27;;
22826;SDS011;11580;52.562;13.418;2023-04-08T06:59:54;28.47;;;22.70;;
22826;SDS011;11580;52.562;13.418;2023-04-08T07:02:22;30.87;;;23.43;;
22826;SDS011;11580;52.562;13.418;2023-04-08T07:04:49;28.80;;;22.77;;
22826;SDS011;11580;52.562;13.418;2023-04-08T07:07:17;27.30;;;22.10;;
22826;SDS011;11580;52.562;13.418;2023-04-08T07:09:44;25.70;;;22.07;;
22826;SDS011;11580;52.562;13.418;2023-04-08T07:12:11;27.93;;;23.30;;
22826;SDS011;11580;52.562;13.418;2023-04-08T07:14:38;31.47;;;23.30;;
22826;SDS011;11580;52.562;13.418;2023-04-08T07:17:05;25.53;;;21.67;;
22826;SDS011;11580;52.562;13.418;2023-04-08T07:19:34;28.27;;;23.10;;
22826;SDS011;11580;52.562;13.418;2023-04-08T07:22:01;24.73;;;21.43;;
22826;SDS011;11580;52.562;13.418;2023-04-08T07:24:28;28.27;;;22.57;;
22826;SDS011;11580;52.562;13.418;2023-04-08T07:26:56;30.13;;;26.00;;
22826;SDS011;11580;52.562;13.418;2023-04-08T07:29:23;29.00;;;23.13;;
22826;SDS011;11580;52.562;13.418;2023-04-08T07:31:50;28.20;;;22.30;;
22826;SDS011;11580;52.562;13.418;2023-04-08T07:34:17;27.87;;;23.27;;
22826;SDS011;11580;52.562;13.418;2023-04-08T07:36:46;26.63;;;23.80;;
22826;SDS011;11580;52.562;13.418;2023-04-08T07:39:13;28.27;;;22.90;;
22826;SDS011;11580;52.562;13.418;2023-04-08T07:41:40;25.20;;;22.10;;
22826;SDS011;11580;52.562;13.418;2023-04-08T07:44:07;26.20;;;23.37;;
22826;SDS011;11580;52.562;13.418;2023-04-08T07:46:35;28.40;;;23.70;;
22826;SDS011;11580;52.562;13.418;2023-04-08T07:49:03;26.47;;;23.30;;
22826;SDS011;11580;52.562;13.418;2023-04-08T07:51:30;26.47;;;21.60;;
22826;SDS011;11580;52.562;13.418;2023-04-08T07:53:59;25.10;;;22.50;;
22826;SDS011;11580;52.562;13.418;2023-04-08T07:56:27;24.83;;;21.10;;
22826;SDS011;11580;52.562;13.418;2023-04-08T07:58:54;28.97;;;23.43;;
22826;SDS011;11580;52.562;13.418;2023-04-08T08:01:22;27.27;;;24.27;;
22826;SDS011;11580;52.562;13.418;2023-04-08T08:03:50;27.23;;;21.60;;
22826;SDS011;11580;52.562;13.418;2023-04-08T08:06:17;26.50;;;22.90;;
22826;SDS011;11580;52.562;13.418;2023-04-08T08:08:44;29.33;;;24.07;;
22826;SDS011;11580;52.562;13.418;2023-04-08T08:11:13;27.33;;;22.87;;
22826;SDS011;11580;52.562;13.418;2023-04-08T08:13:40;23.70;;;21.10;;
22826;SDS011;11580;52.562;13.418;2023-04-08T08:16:07;29.43;;;24.47;;
22826;SDS011;11580;52.562;13.418;2023-04-08T08:18:35;28.17;;;22.80;;
22826;SDS011;11580;52.562;13.418;2023-04-08T08:21:04;27.67;;;22.57;;
22826;SDS011;11580;52.562;13.418;2023-04-08T08:23:31;28.23;;;22.77;;
22826;SDS011;11580;52.562;13.418;2023-04-08T08:25:58;29.40;;;24.23;;
22826;SDS011;11580;52.562;13.418;2023-04-08T08:28:27;25.83;;;23.00;;
22826;SDS011;11580;52.562;13.418;2023-04-08T08:30:55;25.00;;;22.30;;
22826;SDS011;11580;52.562;13.418;2023-04-08T08:33:23;24.90;;;21.60;;
22826;SDS011;11580;52.562;13.418;2023-04-08T08:35:50;24.70;;;21.70;;
22826;SDS011;11580;52.562;13.418;2023-04-08T08:38:18;25.57;;;22.87;;
22826;SDS011;11580;52.562;13.418;2023-04-08T08:40:45;25.00;;;22.37;;
22826;SDS011;11580;52.562;13.418;2023-04-08T08:43:12;27.77;;;23.70;;
22826;SDS011;11580;52.562;13.418;2023-04-08T08:45:41;26.23;;;23.53;;
22826;SDS011;11580;52.562;13.418;2023-04-08T08:48:08;28.87;;;23.90;;
22826;SDS011;11580;52.562;13.418;2023-04-08T08:50:35;28.97;;;23.37;;
22826;SDS011;11580;52.562;13.418;2023-04-08T08:53:03;26.97;;;23.33;;
22826;SDS011;11580;52.562;13.418;2023-04-08T08:55:30;25.43;;;21.70;;
22826;SDS011;11580;52.562;13.418;2023-04-08T08:57:59;25.27;;;21.77;;
22826;SDS011;11580;52.562;13.418;2023-04-08T09:00:30;27.20;;;21.63;;
22826;SDS011;11580;52.562;13.418;2023-04-08T09:03:13;25.47;;;22.53;;
22826;SDS011;11580;52.562;13.418;2023-04-08T09:05:49;24.70;;;22.10;;
22826;SDS011;11580;52.562;13.418;2023-04-08T09:08:27;26.47;;;22.80;;
22826;SDS011;11580;52.562;13.418;2023-04-08T09:11:09;24.10;;;21.57;;
22826;SDS011;11580;52.562;13.418;2023-04-08T09:13:38;23.50;;;20.47;;
22826;SDS011;11580;52.562;13.418;2023-04-08T09:16:07;26.33;;;21.83;;
22826;SDS011;11580;52.562;13.418;2023-04-08T09:18:37;25.03;;;21.53;;
22826;SDS011;11580;52.562;13.418;2023-04-08T09:21:08;23.53;;;20.83;;
22826;SDS011;11580;52.562;13.418;2023-04-08T09:23:37;22.67;;;20.27;;
22826;SDS011;11580;52.562;13.418;2023-04-08T09:26:09;24.23;;;21.83;;
22826;SDS011;11580;52.562;13.418;2023-04-08T09:28:39;26.20;;;22.00;;
22826;SDS011;11580;52.562;13.418;2023-04-08T09:31:20;23.53;;;20.73;;
22826;SDS011;11580;52.562;13.418;2023-04-08T09:33:52;25.00;;;22.37;;
22826;SDS011;11580;52.562;13.418;2023-04-08T09:36:21;27.80;;;23.30;;
22826;SDS011;11580;52.562;13.418;2023-04-08T09:38:48;25.67;;;22.47;;
22826;SDS011;11580;52.562;13.418;2023-04-08T09:41:16;24.30;;;21.80;;
22826;SDS011;11580;52.562;13.418;2023-04-08T09:43:46;23.70;;;20.97;;
22826;SDS011;11580;52.562;13.418;2023-04-08T09:46:17;23.70;;;21.20;;
22826;SDS011;11580;52.562;13.418;2023-04-08T09:48:55;26.00;;;21.90;;
22826;SDS011;11580;52.562;13.418;2023-04-08T09:51:31;23.70;;;21.20;;
22826;SDS011;11580;52.562;13.418;2023-04-08T09:54:05;25.10;;;20.60;;
22826;SDS011;11580;52.562;13.418;2023-04-08T09:56:41;25.70;;;22.80;;
22826;SDS011;11580;52.562;13.418;2023-04-08T09:59:15;25.17;;;20.77;;
22826;SDS011;11580;52.562;13.418;2023-04-08T10:01:49;26.67;;;22.50;;
22826;SDS011;11580;52.562;13.418;2023-04-08T10:04:22;24.37;;;20.37;;
22826;SDS011;11580;52.562;13.418;2023-04-08T10:06:53;23.87;;;21.33;;
22826;SDS011;11580;52.562;13.418;2023-04-08T10:09:29;23.00;;;20.67;;
22826;SDS011;11580;52.562;13.418;2023-04-08T10:11:58;26.40;;;22.47;;
22826;SDS011;11580;52.562;13.418;2023-04-08T10:14:26;24.90;;;22.33;;
22826;SDS011;11580;52.562;13.418;2023-04-08T10:19:53;25.17;;;22.67;;
22826;SDS011;11580;52.562;13.418;2023-04-08T10:25:30;22.87;;;20.47;;
22826;SDS011;11580;52.562;13.418;2023-04-08T10:27:58;21.80;;;19.47;;
22826;SDS011;11580;52.562;13.418;2023-04-08T10:33:10;22.77;;;20.47;;
22826;SDS011;11580;52.562;13.418;2023-04-08T10:35:42;22.77;;;20.17;;
22826;SDS011;11580;52.562;13.418;2023-04-08T10:38:13;21.20;;;18.87;;
22826;SDS011;11580;52.562;13.418;2023-04-08T10:40:42;21.67;;;19.47;;
22826;SDS011;11580;52.562;13.418;2023-04-08T10:43:12;21.87;;;19.57;;
22826;SDS011;11580;52.562;13.418;2023-04-08T10:45:41;20.67;;;18.47;;
22826;SDS011;11580;52.562;13.418;2023-04-08T10:48:10;20.60;;;18.60;;
22826;SDS011;11580;52.562;13.418;2023-04-08T10:50:39;20.17;;;18.30;;
22826;SDS011;11580;52.562;13.418;2023-04-08T10:53:09;19.93;;;17.90;;
22826;SDS011;11580;52.562;13.418;2023-04-08T10:55:36;21.30;;;19.10;;
22826;SDS011;11580;52.562;13.418;2023-04-08T10:58:04;19.23;;;17.47;;
22826;SDS011;11580;52.562;13.418;2023-04-08T11:00:33;17.33;;;15.73;;
22826;SDS011;11580;52.562;13.418;2023-04-08T11:03:02;19.13;;;17.33;;
22826;SDS011;11580;52.562;13.418;2023-04-08T11:05:31;19.53;;;17.63;;
22826;SDS011;11580;52.562;13.418;2023-04-08T11:08:02;21.13;;;18.87;;
22826;SDS011;11580;52.562;13.418;2023-04-08T11:10:30;19.03;;;17.23;;
22826;SDS011;11580;52.562;13.418;2023-04-08T11:13:05;24.03;;;20.20;;
22826;SDS011;11580;52.562;13.418;2023-04-08T11:15:34;19.60;;;17.27;;
22826;SDS011;11580;52.562;13.418;2023-04-08T11:18:02;21.43;;;19.23;;
22826;SDS011;11580;52.562;13.418;2023-04-08T11:20:31;20.50;;;18.50;;
22826;SDS011;11580;52.562;13.418;2023-04-08T11:23:02;18.87;;;17.00;;
22826;SDS011;11580;52.562;13.418;2023-04-08T11:25:30;19.13;;;17.33;;
22826;SDS011;11580;52.562;13.418;2023-04-08T11:27:57;20.73;;;18.77;;
22826;SDS011;11580;52.562;13.418;2023-04-08T11:30:25;20.30;;;18.27;;
22826;SDS011;11580;52.562;13.418;2023-04-08T11:32:53;20.93;;;18.87;;
22826;SDS011;11580;52.562;13.418;2023-04-08T11:35:22;22.03;;;19.97;;
22826;SDS011;11580;52.562;13.418;2023-04-08T11:37:51;21.77;;;19.77;;
22826;SDS011;11580;52.562;13.418;2023-04-08T11:40:20;19.80;;;17.83;;
22826;SDS011;11580;52.562;13.418;2023-04-08T11:42:48;19.67;;;17.77;;
22826;SDS011;11580;52.562;13.418;2023-04-08T11:45:17;21.20;;;19.20;;
22826;SDS011;11580;52.562;13.418;2023-04-08T11:47:46;19.33;;;17.43;;
22826;SDS011;11580;52.562;13.418;2023-04-08T11:50:21;20.33;;;18.47;;
22826;SDS011;11580;52.562;13.418;2023-04-08T11:52:49;20.60;;;18.67;;
22826;SDS011;11580;52.562;13.418;2023-04-08T11:55:22;20.10;;;18.17;;
22826;SDS011;11580;52.562;13.418;2023-04-08T11:57:52;19.90;;;18.00;;
22826;SDS011;11580;52.562;13.418;2023-04-08T12:00:21;20.17;;;18.27;;
22826;SDS011;11580;52.562;13.418;2023-04-08T12:02:50;19.40;;;17.70;;
22826;SDS011;11580;52.562;13.418;2023-04-08T12:05:17;20.23;;;18.43;;
22826;SDS011;11580;52.562;13.418;2023-04-08T12:07:45;18.90;;;17.13;;
22826;SDS011;11580;52.562;13.418;2023-04-08T12:10:12;19.27;;;17.50;;
22826;SDS011;11580;52.562;13.418;2023-04-08T12:12:41;17.53;;;16.00;;
22826;SDS011;11580;52.562;13.418;2023-04-08T12:15:09;19.57;;;17.77;;
22826;SDS011;11580;52.562;13.418;2023-04-08T12:17:36;19.33;;;17.57;;
22826;SDS011;11580;52.562;13.418;2023-04-08T12:20:04;16.70;;;15.20;;
22826;SDS011;11580;52.562;13.418;2023-04-08T12:22:32;17.87;;;16.23;;
22826;SDS011;11580;52.562;13.418;2023-04-08T12:24:59;15.63;;;14.27;;
22826;SDS011;11580;52.562;13.418;2023-04-08T12:27:27;15.63;;;14.23;;
22826;SDS011;11580;52.562;13.418;2023-04-08T12:29:58;15.70;;;14.40;;
22826;SDS011;11580;52.562;13.418;2023-04-08T12:32:26;13.97;;;12.80;;
22826;SDS011;11580;52.562;13.418;2023-04-08T12:34:53;15.70;;;14.40;;
22826;SDS011;11580;52.562;13.418;2023-04-08T12:37:21;17.63;;;16.07;;
22826;SDS011;11580;52.562;13.418;2023-04-08T12:39:48;19.90;;;18.00;;
22826;SDS011;11580;52.562;13.418;2023-04-08T12:42:15;19.10;;;17.30;;
22826;SDS011;11580;52.562;13.418;2023-04-08T12:44:42;20.63;;;18.73;;
22826;SDS011;11580;52.562;13.418;2023-04-08T12:47:11;19.77;;;18.00;;
22826;SDS011;11580;52.562;13.418;2023-04-08T12:49:39;18.50;;;16.70;;
22826;SDS011;11580;52.562;13.418;2023-04-08T12:52:06;19.17;;;17.33;;
22826;SDS011;11580;52.562;13.418;2023-04-08T12:54:33;20.23;;;18.50;;
22826;SDS011;11580;52.562;13.418;2023-04-08T12:57:00;19.47;;;17.63;;
22826;SDS011;11580;52.562;13.418;2023-04-08T12:59:28;18.00;;;16.30;;
22826;SDS011;11580;52.562;13.418;2023-04-08T13:01:56;17.03;;;15.63;;
22826;SDS011;11580;52.562;13.418;2023-04-08T13:04:24;18.43;;;16.63;;
22826;SDS011;11580;52.562;13.418;2023-04-08T13:06:51;19.83;;;18.03;;
22826;SDS011;11580;52.562;13.418;2023-04-08T13:09:19;17.67;;;16.13;;
22826;SDS011;11580;52.562;13.418;2023-04-08T13:11:47;18.30;;;16.90;;
22826;SDS011;11580;52.562;13.418;2023-04-08T13:14:14;14.53;;;13.27;;
22826;SDS011;11580;52.562;13.418;2023-04-08T13:16:42;15.53;;;14.00;;
22826;SDS011;11580;52.562;13.418;2023-04-08T13:19:09;14.60;;;13.30;;
22826;SDS011;11580;52.562;13.418;2023-04-08T13:21:38;15.07;;;13.77;;
22826;SDS011;11580;52.562;13.418;2023-04-08T13:24:05;14.33;;;13.13;;
22826;SDS011;11580;52.562;13.418;2023-04-08T13:26:32;16.83;;;15.30;;
22826;SDS011;11580;52.562;13.418;2023-04-08T13:28:59;15.67;;;14.37;;
22826;SDS011;11580;52.562;13.418;2023-04-08T13:31:26;13.80;;;12.60;;
22826;SDS011;11580;52.562;13.418;2023-04-08T13:33:54;13.00;;;11.93;;
22826;SDS011;11580;52.562;13.418;2023-04-08T13:36:21;11.20;;;10.30;;
22826;SDS011;11580;52.562;13.418;2023-04-08T13:38:50;12.27;;;11.27;;
22826;SDS011;11580;52.562;13.418;2023-04-08T13:41:18;13.20;;;12.10;;
22826;SDS011;11580;52.562;13.418;2023-04-08T13:43:46;15.50;;;14.30;;
22826;SDS011;11580;52.562;13.418;2023-04-08T13:46:14;13.90;;;12.80;;
22826;SDS011;11580;52.562;13.418;2023-04-08T13:48:42;16.07;;;14.77;;
22826;SDS011;11580;52.562;13.418;2023-04-08T13:51:10;14.30;;;13.10;;
22826;SDS011;11580;52.562;13.418;2023-04-08T13:53:37;15.43;;;14.03;;
22826;SDS011;11580;52.562;13.418;2023-04-08T13:56:06;15.70;;;14.43;;
22826;SDS011;11580;52.562;13.418;2023-04-08T13:58:33;15.00;;;13.70;;
22826;SDS011;11580;52.562;13.418;2023-04-08T14:01:01;15.53;;;14.27;;
22826;SDS011;11580;52.562;13.418;2023-04-08T14:03:28;14.47;;;13.27;;
22826;SDS011;11580;52.562;13.418;2023-04-08T14:05:56;15.07;;;13.83;;
22826;SDS011;11580;52.562;13.418;2023-04-08T14:08:23;13.10;;;12.00;;
22826;SDS011;11580;52.562;13.418;2023-04-08T14:10:51;14.00;;;12.90;;
22826;SDS011;11580;52.562;13.418;2023-04-08T14:13:22;13.03;;;12.03;;
22826;SDS011;11580;52.562;13.418;2023-04-08T14:15:49;13.30;;;12.20;;
22826;SDS011;11580;52.562;13.418;2023-04-08T14:18:19;13.73;;;12.53;;
22826;SDS011;11580;52.562;13.418;2023-04-08T14:20:46;13.07;;;12.07;;
22826;SDS011;11580;52.562;13.418;2023-04-08T14:23:13;14.67;;;13.37;;
22826;SDS011;11580;52.562;13.418;2023-04-08T14:25:41;14.53;;;13.23;;